sensor_id;sensor_type;location;lat;lon;timestamp;P1;durP1;ratioP1;P2;durP2;ratioP2
7001;SDS011;3541;53.230;10.518;2022-12-16T00:01:01;20.23;;;12.63;;
7001;SDS011;3541;53.230;10.518;2022-12-16T00:03:29;21.13;;;12.70;;
7001;SDS011;3541;53.230;10.518;2022-12-16T00:05:56;19.07;;;11.33;;
7001;SDS011;3541;53.230;10.518;2022-12-16T00:08:22;19.13;;;11.77;;
7001;SDS011;3541;53.230;10.518;2022-12-16T00:10:50;24.23;;;12.90;;
7001;SDS011;3541;53.230;10.518;2022-12-16T00:13:22;20.43;;;12.30;;
7001;SDS011;3541;53.230;10.518;2022-12-16T00:15:49;25.80;;;14.90;;
7001;SDS011;3541;53.230;10.518;2022-12-16T00:18:15;39.83;;;20.80;;
7001;SDS011;3541;53.230;10.518;2022-12-16T00:20:44;26.30;;;15.37;;
7001;SDS011;3541;53.230;10.518;2022-12-16T00:23:11;21.70;;;13.37;;
7001;SDS011;3541;53.230;10.518;2022-12-16T00:25:39;24.73;;;12.97;;
7001;SDS011;3541;53.230;10.518;2022-12-16T00:28:08;23.10;;;12.67;;
7001;SDS011;3541;53.230;10.518;2022-12-16T00:30:34;21.57;;;12.27;;
7001;SDS011;3541;53.230;10.518;2022-12-16T00:33:01;23.17;;;12.80;;
7001;SDS011;3541;53.230;10.518;2022-12-16T00:35:28;20.20;;;11.77;;
7001;SDS011;3541;53.230;10.518;2022-12-16T00:37:55;21.40;;;11.47;;
7001;SDS011;3541;53.230;10.518;2022-12-16T00:40:21;22.27;;;12.30;;
7001;SDS011;3541;53.230;10.518;2022-12-16T00:42:48;22.50;;;12.60;;
7001;SDS011;3541;53.230;10.518;2022-12-16T00:45:16;23.23;;;12.43;;
7001;SDS011;3541;53.230;10.518;2022-12-16T00:47:42;22.27;;;12.63;;
7001;SDS011;3541;53.230;10.518;2022-12-16T00:50:09;20.70;;;11.70;;
7001;SDS011;3541;53.230;10.518;2022-12-16T00:52:36;19.83;;;11.43;;
7001;SDS011;3541;53.230;10.518;2022-12-16T00:55:03;20.13;;;11.00;;
7001;SDS011;3541;53.230;10.518;2022-12-16T00:57:32;21.60;;;11.60;;
7001;SDS011;3541;53.230;10.518;2022-12-16T00:59:58;20.30;;;12.23;;
7001;SDS011;3541;53.230;10.518;2022-12-16T01:02:26;21.10;;;11.50;;
7001;SDS011;3541;53.230;10.518;2022-12-16T01:04:53;20.07;;;12.00;;
7001;SDS011;3541;53.230;10.518;2022-12-16T01:07:20;21.80;;;12.03;;
7001;SDS011;3541;53.230;10.518;2022-12-16T01:09:47;23.63;;;12.40;;
7001;SDS011;3541;53.230;10.518;2022-12-16T01:12:14;23.87;;;12.20;;
7001;SDS011;3541;53.230;10.518;2022-12-16T01:14:40;23.70;;;13.07;;
7001;SDS011;3541;53.230;10.518;2022-12-16T01:17:07;21.63;;;12.23;;
7001;SDS011;3541;53.230;10.518;2022-12-16T01:19:35;23.60;;;12.17;;
7001;SDS011;3541;53.230;10.518;2022-12-16T01:22:01;20.23;;;12.00;;
7001;SDS011;3541;53.230;10.518;2022-12-16T01:24:28;21.77;;;13.00;;
7001;SDS011;3541;53.230;10.518;2022-12-16T01:26:54;21.50;;;12.77;;
7001;SDS011;3541;53.230;10.518;2022-12-16T01:29:21;22.80;;;13.43;;
7001;SDS011;3541;53.230;10.518;2022-12-16T01:31:48;25.63;;;13.27;;
7001;SDS011;3541;53.230;10.518;2022-12-16T01:34:15;24.17;;;13.93;;
7001;SDS011;3541;53.230;10.518;2022-12-16T01:36:43;21.37;;;12.13;;
7001;SDS011;3541;53.230;10.518;2022-12-16T01:39:09;24.07;;;12.90;;
7001;SDS011;3541;53.230;10.518;2022-12-16T01:41:36;23.07;;;12.37;;
7001;SDS011;3541;53.230;10.518;2022-12-16T01:44:11;21.97;;;12.90;;
7001;SDS011;3541;53.230;10.518;2022-12-16T01:46:39;19.30;;;12.50;;
7001;SDS011;3541;53.230;10.518;2022-12-16T01:49:07;22.20;;;13.73;;
7001;SDS011;3541;53.230;10.518;2022-12-16T01:51:38;26.63;;;12.50;;
7001;SDS011;3541;53.230;10.518;2022-12-16T01:54:09;21.23;;;11.90;;
7001;SDS011;3541;53.230;10.518;2022-12-16T01:56:41;23.77;;;12.90;;
7001;SDS011;3541;53.230;10.518;2022-12-16T01:59:12;23.63;;;12.40;;
7001;SDS011;3541;53.230;10.518;2022-12-16T02:01:40;19.47;;;12.10;;
7001;SDS011;3541;53.230;10.518;2022-12-16T02:04:07;22.10;;;12.67;;
7001;SDS011;3541;53.230;10.518;2022-12-16T02:06:34;20.57;;;11.80;;
7001;SDS011;3541;53.230;10.518;2022-12-16T02:09:01;22.70;;;12.57;;
7001;SDS011;3541;53.230;10.518;2022-12-16T02:11:37;20.07;;;11.83;;
7001;SDS011;3541;53.230;10.518;2022-12-16T02:14:24;20.70;;;13.17;;
7001;SDS011;3541;53.230;10.518;2022-12-16T02:17:02;17.57;;;12.30;;
7001;SDS011;3541;53.230;10.518;2022-12-16T02:19:55;20.90;;;12.73;;
7001;SDS011;3541;53.230;10.518;2022-12-16T02:22:46;22.03;;;12.43;;
7001;SDS011;3541;53.230;10.518;2022-12-16T02:25:46;20.63;;;12.87;;
7001;SDS011;3541;53.230;10.518;2022-12-16T02:28:38;19.50;;;12.43;;
7001;SDS011;3541;53.230;10.518;2022-12-16T02:31:22;20.63;;;12.90;;
7001;SDS011;3541;53.230;10.518;2022-12-16T02:33:53;20.50;;;13.03;;
7001;SDS011;3541;53.230;10.518;2022-12-16T02:36:40;20.80;;;12.23;;
7001;SDS011;3541;53.230;10.518;2022-12-16T02:39:12;22.10;;;12.47;;
7001;SDS011;3541;53.230;10.518;2022-12-16T02:41:46;20.80;;;13.37;;
7001;SDS011;3541;53.230;10.518;2022-12-16T02:44:18;23.83;;;13.00;;
7001;SDS011;3541;53.230;10.518;2022-12-16T02:46:53;20.97;;;11.90;;
7001;SDS011;3541;53.230;10.518;2022-12-16T02:52:13;20.70;;;13.03;;
7001;SDS011;3541;53.230;10.518;2022-12-16T02:54:40;24.27;;;12.93;;
7001;SDS011;3541;53.230;10.518;2022-12-16T02:57:11;28.80;;;14.00;;
7001;SDS011;3541;53.230;10.518;2022-12-16T02:59:48;25.00;;;14.30;;
7001;SDS011;3541;53.230;10.518;2022-12-16T03:02:23;22.23;;;14.27;;
7001;SDS011;3541;53.230;10.518;2022-12-16T03:04:57;31.20;;;14.67;;
7001;SDS011;3541;53.230;10.518;2022-12-16T03:07:30;23.23;;;14.43;;
7001;SDS011;3541;53.230;10.518;2022-12-16T03:10:00;21.63;;;13.70;;
7001;SDS011;3541;53.230;10.518;2022-12-16T03:12:29;22.07;;;13.80;;
7001;SDS011;3541;53.230;10.518;2022-12-16T03:14:56;23.10;;;13.67;;
7001;SDS011;3541;53.230;10.518;2022-12-16T03:17:24;22.43;;;13.20;;
7001;SDS011;3541;53.230;10.518;2022-12-16T03:19:55;22.37;;;13.80;;
7001;SDS011;3541;53.230;10.518;2022-12-16T03:22:31;20.03;;;12.60;;
7001;SDS011;3541;53.230;10.518;2022-12-16T03:25:02;26.77;;;14.30;;
7001;SDS011;3541;53.230;10.518;2022-12-16T03:27:30;21.00;;;13.97;;
7001;SDS011;3541;53.230;10.518;2022-12-16T03:30:03;25.77;;;13.80;;
7001;SDS011;3541;53.230;10.518;2022-12-16T03:32:36;23.47;;;14.07;;
7001;SDS011;3541;53.230;10.518;2022-12-16T03:35:09;26.73;;;14.23;;
7001;SDS011;3541;53.230;10.518;2022-12-16T03:37:40;21.80;;;13.07;;
7001;SDS011;3541;53.230;10.518;2022-12-16T03:40:09;23.13;;;13.60;;
7001;SDS011;3541;53.230;10.518;2022-12-16T03:42:37;26.03;;;14.37;;
7001;SDS011;3541;53.230;10.518;2022-12-16T03:45:05;22.97;;;13.73;;
7001;SDS011;3541;53.230;10.518;2022-12-16T03:47:37;27.60;;;15.20;;
7001;SDS011;3541;53.230;10.518;2022-12-16T03:50:04;23.67;;;14.07;;
7001;SDS011;3541;53.230;10.518;2022-12-16T03:52:31;22.90;;;13.30;;
7001;SDS011;3541;53.230;10.518;2022-12-16T03:54:59;25.27;;;14.57;;
7001;SDS011;3541;53.230;10.518;2022-12-16T03:57:25;24.40;;;14.97;;
7001;SDS011;3541;53.230;10.518;2022-12-16T03:59:52;23.87;;;13.50;;
7001;SDS011;3541;53.230;10.518;2022-12-16T04:02:18;21.60;;;13.83;;
7001;SDS011;3541;53.230;10.518;2022-12-16T04:04:46;25.53;;;14.53;;
7001;SDS011;3541;53.230;10.518;2022-12-16T04:07:13;23.30;;;13.93;;
7001;SDS011;3541;53.230;10.518;2022-12-16T04:09:45;25.53;;;14.70;;
7001;SDS011;3541;53.230;10.518;2022-12-16T04:12:13;22.23;;;14.47;;
7001;SDS011;3541;53.230;10.518;2022-12-16T04:15:06;23.60;;;13.10;;
7001;SDS011;3541;53.230;10.518;2022-12-16T04:17:51;22.53;;;13.40;;
7001;SDS011;3541;53.230;10.518;2022-12-16T04:20:38;22.97;;;13.97;;
7001;SDS011;3541;53.230;10.518;2022-12-16T04:23:25;24.83;;;14.33;;
7001;SDS011;3541;53.230;10.518;2022-12-16T04:26:11;24.60;;;13.60;;
7001;SDS011;3541;53.230;10.518;2022-12-16T04:28:37;22.43;;;13.20;;
7001;SDS011;3541;53.230;10.518;2022-12-16T04:31:04;22.50;;;13.50;;
7001;SDS011;3541;53.230;10.518;2022-12-16T04:33:31;25.73;;;14.57;;
7001;SDS011;3541;53.230;10.518;2022-12-16T04:36:17;26.50;;;14.40;;
7001;SDS011;3541;53.230;10.518;2022-12-16T04:39:01;26.67;;;14.53;;
7001;SDS011;3541;53.230;10.518;2022-12-16T04:41:45;23.43;;;14.43;;
7001;SDS011;3541;53.230;10.518;2022-12-16T04:44:30;23.67;;;14.30;;
7001;SDS011;3541;53.230;10.518;2022-12-16T04:47:14;23.40;;;14.60;;
7001;SDS011;3541;53.230;10.518;2022-12-16T04:49:58;23.87;;;14.67;;
7001;SDS011;3541;53.230;10.518;2022-12-16T04:52:43;22.80;;;14.87;;
7001;SDS011;3541;53.230;10.518;2022-12-16T04:55:27;22.53;;;13.57;;
7001;SDS011;3541;53.230;10.518;2022-12-16T04:58:12;24.90;;;15.13;;
7001;SDS011;3541;53.230;10.518;2022-12-16T05:00:56;25.70;;;14.77;;
7001;SDS011;3541;53.230;10.518;2022-12-16T05:03:40;22.67;;;13.57;;
7001;SDS011;3541;53.230;10.518;2022-12-16T05:06:24;22.93;;;14.43;;
7001;SDS011;3541;53.230;10.518;2022-12-16T05:09:09;25.37;;;14.50;;
7001;SDS011;3541;53.230;10.518;2022-12-16T05:11:53;27.67;;;16.83;;
7001;SDS011;3541;53.230;10.518;2022-12-16T05:14:37;28.57;;;16.33;;
7001;SDS011;3541;53.230;10.518;2022-12-16T05:17:21;26.00;;;16.37;;
7001;SDS011;3541;53.230;10.518;2022-12-16T05:20:06;23.77;;;15.63;;
7001;SDS011;3541;53.230;10.518;2022-12-16T05:22:50;23.60;;;15.40;;
7001;SDS011;3541;53.230;10.518;2022-12-16T05:25:38;24.00;;;14.20;;
7001;SDS011;3541;53.230;10.518;2022-12-16T05:28:22;21.47;;;13.70;;
7001;SDS011;3541;53.230;10.518;2022-12-16T05:31:06;26.30;;;14.80;;
7001;SDS011;3541;53.230;10.518;2022-12-16T05:33:51;25.20;;;14.83;;
7001;SDS011;3541;53.230;10.518;2022-12-16T05:36:35;28.90;;;14.60;;
7001;SDS011;3541;53.230;10.518;2022-12-16T05:39:19;24.80;;;15.17;;
7001;SDS011;3541;53.230;10.518;2022-12-16T05:42:04;27.70;;;15.17;;
7001;SDS011;3541;53.230;10.518;2022-12-16T05:44:49;24.50;;;14.47;;
7001;SDS011;3541;53.230;10.518;2022-12-16T05:47:33;24.30;;;13.77;;
7001;SDS011;3541;53.230;10.518;2022-12-16T05:50:17;25.97;;;15.33;;
7001;SDS011;3541;53.230;10.518;2022-12-16T05:53:01;27.40;;;14.87;;
7001;SDS011;3541;53.230;10.518;2022-12-16T05:55:45;28.10;;;14.50;;
7001;SDS011;3541;53.230;10.518;2022-12-16T05:58:31;23.67;;;14.53;;
7001;SDS011;3541;53.230;10.518;2022-12-16T06:01:15;24.97;;;14.50;;
7001;SDS011;3541;53.230;10.518;2022-12-16T06:03:59;29.63;;;16.37;;
7001;SDS011;3541;53.230;10.518;2022-12-16T06:06:43;28.20;;;15.87;;
7001;SDS011;3541;53.230;10.518;2022-12-16T06:09:28;28.70;;;16.07;;
7001;SDS011;3541;53.230;10.518;2022-12-16T06:12:12;33.50;;;17.43;;
7001;SDS011;3541;53.230;10.518;2022-12-16T06:14:58;32.80;;;17.03;;
7001;SDS011;3541;53.230;10.518;2022-12-16T06:17:42;31.40;;;17.00;;
7001;SDS011;3541;53.230;10.518;2022-12-16T06:20:30;28.97;;;15.83;;
7001;SDS011;3541;53.230;10.518;2022-12-16T06:23:15;26.47;;;14.20;;
7001;SDS011;3541;53.230;10.518;2022-12-16T06:25:59;22.37;;;14.33;;
7001;SDS011;3541;53.230;10.518;2022-12-16T06:28:43;21.57;;;13.50;;
7001;SDS011;3541;53.230;10.518;2022-12-16T06:31:29;25.17;;;13.30;;
7001;SDS011;3541;53.230;10.518;2022-12-16T06:34:13;18.13;;;12.30;;
7001;SDS011;3541;53.230;10.518;2022-12-16T06:36:57;25.10;;;14.00;;
7001;SDS011;3541;53.230;10.518;2022-12-16T06:39:41;21.57;;;13.20;;
7001;SDS011;3541;53.230;10.518;2022-12-16T06:42:26;25.47;;;13.27;;
7001;SDS011;3541;53.230;10.518;2022-12-16T06:45:09;26.00;;;13.53;;
7001;SDS011;3541;53.230;10.518;2022-12-16T06:47:55;26.00;;;13.60;;
7001;SDS011;3541;53.230;10.518;2022-12-16T06:50:42;20.90;;;12.93;;
7001;SDS011;3541;53.230;10.518;2022-12-16T06:53:26;22.17;;;13.00;;
7001;SDS011;3541;53.230;10.518;2022-12-16T06:56:10;23.13;;;13.47;;
7001;SDS011;3541;53.230;10.518;2022-12-16T06:58:54;26.40;;;13.63;;
7001;SDS011;3541;53.230;10.518;2022-12-16T07:01:38;19.50;;;12.57;;
7001;SDS011;3541;53.230;10.518;2022-12-16T07:04:26;28.90;;;15.07;;
7001;SDS011;3541;53.230;10.518;2022-12-16T07:07:10;23.30;;;13.93;;
7001;SDS011;3541;53.230;10.518;2022-12-16T07:09:54;21.40;;;12.93;;
7001;SDS011;3541;53.230;10.518;2022-12-16T07:12:38;22.07;;;13.73;;
7001;SDS011;3541;53.230;10.518;2022-12-16T07:15:22;25.33;;;13.80;;
7001;SDS011;3541;53.230;10.518;2022-12-16T07:18:07;27.70;;;15.07;;
7001;SDS011;3541;53.230;10.518;2022-12-16T07:20:52;31.07;;;15.53;;
7001;SDS011;3541;53.230;10.518;2022-12-16T07:23:36;27.87;;;16.03;;
7001;SDS011;3541;53.230;10.518;2022-12-16T07:26:21;28.83;;;16.50;;
7001;SDS011;3541;53.230;10.518;2022-12-16T07:29:19;23.57;;;16.27;;
7001;SDS011;3541;53.230;10.518;2022-12-16T07:32:04;28.47;;;16.23;;
7001;SDS011;3541;53.230;10.518;2022-12-16T07:34:48;26.50;;;16.47;;
7001;SDS011;3541;53.230;10.518;2022-12-16T07:37:35;29.47;;;17.80;;
7001;SDS011;3541;53.230;10.518;2022-12-16T07:40:34;29.37;;;17.50;;
7001;SDS011;3541;53.230;10.518;2022-12-16T07:43:18;26.87;;;16.87;;
7001;SDS011;3541;53.230;10.518;2022-12-16T07:46:02;31.97;;;17.03;;
7001;SDS011;3541;53.230;10.518;2022-12-16T07:48:47;26.07;;;16.27;;
7001;SDS011;3541;53.230;10.518;2022-12-16T07:51:31;29.10;;;17.07;;
7001;SDS011;3541;53.230;10.518;2022-12-16T07:54:16;30.37;;;17.63;;
7001;SDS011;3541;53.230;10.518;2022-12-16T07:57:01;28.70;;;18.47;;
7001;SDS011;3541;53.230;10.518;2022-12-16T07:59:45;29.30;;;18.57;;
7001;SDS011;3541;53.230;10.518;2022-12-16T08:02:29;27.00;;;17.37;;
7001;SDS011;3541;53.230;10.518;2022-12-16T08:05:13;28.53;;;18.80;;
7001;SDS011;3541;53.230;10.518;2022-12-16T08:07:57;34.20;;;17.73;;
7001;SDS011;3541;53.230;10.518;2022-12-16T08:10:42;28.20;;;16.53;;
7001;SDS011;3541;53.230;10.518;2022-12-16T08:13:26;29.63;;;16.87;;
7001;SDS011;3541;53.230;10.518;2022-12-16T08:16:10;27.90;;;16.80;;
7001;SDS011;3541;53.230;10.518;2022-12-16T08:18:54;27.57;;;16.40;;
7001;SDS011;3541;53.230;10.518;2022-12-16T08:21:38;29.60;;;18.07;;
7001;SDS011;3541;53.230;10.518;2022-12-16T08:24:22;27.47;;;17.37;;
7001;SDS011;3541;53.230;10.518;2022-12-16T08:27:08;30.87;;;17.80;;
7001;SDS011;3541;53.230;10.518;2022-12-16T08:29:52;30.00;;;17.03;;
7001;SDS011;3541;53.230;10.518;2022-12-16T08:32:36;28.93;;;17.57;;
7001;SDS011;3541;53.230;10.518;2022-12-16T08:35:20;26.77;;;17.00;;
7001;SDS011;3541;53.230;10.518;2022-12-16T08:38:04;32.80;;;17.10;;
7001;SDS011;3541;53.230;10.518;2022-12-16T08:40:48;28.40;;;17.27;;
7001;SDS011;3541;53.230;10.518;2022-12-16T08:43:33;32.07;;;17.87;;
7001;SDS011;3541;53.230;10.518;2022-12-16T08:46:18;29.40;;;17.27;;
7001;SDS011;3541;53.230;10.518;2022-12-16T08:49:03;28.63;;;17.70;;
7001;SDS011;3541;53.230;10.518;2022-12-16T08:51:48;27.50;;;17.40;;
7001;SDS011;3541;53.230;10.518;2022-12-16T08:54:33;30.83;;;17.17;;
7001;SDS011;3541;53.230;10.518;2022-12-16T08:57:17;31.53;;;17.67;;
7001;SDS011;3541;53.230;10.518;2022-12-16T09:00:03;28.60;;;18.10;;
7001;SDS011;3541;53.230;10.518;2022-12-16T09:02:51;35.77;;;17.77;;
7001;SDS011;3541;53.230;10.518;2022-12-16T09:05:37;29.37;;;17.53;;
7001;SDS011;3541;53.230;10.518;2022-12-16T09:08:20;30.60;;;17.17;;
7001;SDS011;3541;53.230;10.518;2022-12-16T09:11:05;28.17;;;17.37;;
7001;SDS011;3541;53.230;10.518;2022-12-16T09:13:49;31.20;;;18.90;;
7001;SDS011;3541;53.230;10.518;2022-12-16T09:16:34;31.60;;;18.63;;
7001;SDS011;3541;53.230;10.518;2022-12-16T09:19:18;31.20;;;18.53;;
7001;SDS011;3541;53.230;10.518;2022-12-16T09:22:02;29.70;;;18.23;;
7001;SDS011;3541;53.230;10.518;2022-12-16T09:24:46;33.13;;;18.23;;
7001;SDS011;3541;53.230;10.518;2022-12-16T09:27:30;33.33;;;18.70;;
7001;SDS011;3541;53.230;10.518;2022-12-16T09:30:14;29.93;;;19.03;;
7001;SDS011;3541;53.230;10.518;2022-12-16T09:33:01;34.07;;;19.77;;
7001;SDS011;3541;53.230;10.518;2022-12-16T09:35:44;31.07;;;18.07;;
7001;SDS011;3541;53.230;10.518;2022-12-16T09:38:29;29.23;;;18.43;;
7001;SDS011;3541;53.230;10.518;2022-12-16T09:41:24;32.50;;;20.40;;
7001;SDS011;3541;53.230;10.518;2022-12-16T09:44:21;30.00;;;18.77;;
7001;SDS011;3541;53.230;10.518;2022-12-16T09:47:14;31.70;;;18.67;;
7001;SDS011;3541;53.230;10.518;2022-12-16T09:50:08;31.67;;;18.27;;
7001;SDS011;3541;53.230;10.518;2022-12-16T09:53:02;32.63;;;19.17;;
7001;SDS011;3541;53.230;10.518;2022-12-16T09:55:49;58.63;;;30.87;;
7001;SDS011;3541;53.230;10.518;2022-12-16T09:58:37;45.57;;;25.13;;
7001;SDS011;3541;53.230;10.518;2022-12-16T10:01:24;35.73;;;22.57;;
7001;SDS011;3541;53.230;10.518;2022-12-16T10:04:09;32.93;;;19.97;;
7001;SDS011;3541;53.230;10.518;2022-12-16T10:06:57;32.20;;;19.43;;
7001;SDS011;3541;53.230;10.518;2022-12-16T10:09:44;34.40;;;20.40;;
7001;SDS011;3541;53.230;10.518;2022-12-16T10:12:37;32.00;;;19.43;;
7001;SDS011;3541;53.230;10.518;2022-12-16T10:15:28;32.07;;;19.20;;
7001;SDS011;3541;53.230;10.518;2022-12-16T10:18:23;34.47;;;19.23;;
7001;SDS011;3541;53.230;10.518;2022-12-16T10:21:17;33.03;;;19.03;;
7001;SDS011;3541;53.230;10.518;2022-12-16T10:24:08;29.90;;;18.90;;
7001;SDS011;3541;53.230;10.518;2022-12-16T10:27:04;33.53;;;19.73;;
7001;SDS011;3541;53.230;10.518;2022-12-16T10:29:55;29.73;;;19.20;;
7001;SDS011;3541;53.230;10.518;2022-12-16T10:32:40;30.83;;;19.57;;
7001;SDS011;3541;53.230;10.518;2022-12-16T10:35:31;35.53;;;19.03;;
7001;SDS011;3541;53.230;10.518;2022-12-16T10:38:20;30.87;;;18.83;;
7001;SDS011;3541;53.230;10.518;2022-12-16T10:41:10;34.07;;;19.00;;
7001;SDS011;3541;53.230;10.518;2022-12-16T10:43:56;37.57;;;20.47;;
7001;SDS011;3541;53.230;10.518;2022-12-16T10:46:41;32.70;;;19.23;;
7001;SDS011;3541;53.230;10.518;2022-12-16T10:49:25;34.40;;;19.87;;
7001;SDS011;3541;53.230;10.518;2022-12-16T10:52:10;33.27;;;19.73;;
7001;SDS011;3541;53.230;10.518;2022-12-16T10:54:57;32.73;;;18.63;;
7001;SDS011;3541;53.230;10.518;2022-12-16T10:57:50;29.53;;;18.80;;
7001;SDS011;3541;53.230;10.518;2022-12-16T11:00:42;29.07;;;18.53;;
7001;SDS011;3541;53.230;10.518;2022-12-16T11:03:28;32.70;;;19.00;;
7001;SDS011;3541;53.230;10.518;2022-12-16T11:06:15;36.73;;;21.87;;
7001;SDS011;3541;53.230;10.518;2022-12-16T11:09:12;32.27;;;20.20;;
7001;SDS011;3541;53.230;10.518;2022-12-16T11:12:09;35.43;;;19.30;;
7001;SDS011;3541;53.230;10.518;2022-12-16T11:14:58;31.60;;;20.13;;
7001;SDS011;3541;53.230;10.518;2022-12-16T11:17:45;34.80;;;19.67;;
7001;SDS011;3541;53.230;10.518;2022-12-16T11:20:44;33.13;;;19.70;;
7001;SDS011;3541;53.230;10.518;2022-12-16T11:23:29;33.50;;;20.93;;
7001;SDS011;3541;53.230;10.518;2022-12-16T11:26:14;35.30;;;20.90;;
7001;SDS011;3541;53.230;10.518;2022-12-16T11:29:01;33.47;;;20.47;;
7001;SDS011;3541;53.230;10.518;2022-12-16T11:31:50;29.73;;;18.87;;
7001;SDS011;3541;53.230;10.518;2022-12-16T11:34:39;31.60;;;19.57;;
7001;SDS011;3541;53.230;10.518;2022-12-16T11:37:25;31.77;;;18.97;;
7001;SDS011;3541;53.230;10.518;2022-12-16T11:40:12;30.00;;;19.33;;
7001;SDS011;3541;53.230;10.518;2022-12-16T11:43:00;32.17;;;18.33;;
7001;SDS011;3541;53.230;10.518;2022-12-16T11:45:47;31.73;;;18.13;;
7001;SDS011;3541;53.230;10.518;2022-12-16T11:48:35;32.10;;;19.27;;
7001;SDS011;3541;53.230;10.518;2022-12-16T11:51:23;27.73;;;17.90;;
7001;SDS011;3541;53.230;10.518;2022-12-16T11:54:12;38.33;;;19.70;;
7001;SDS011;3541;53.230;10.518;2022-12-16T11:57:01;31.87;;;18.53;;
7001;SDS011;3541;53.230;10.518;2022-12-16T11:59:49;31.10;;;19.03;;
7001;SDS011;3541;53.230;10.518;2022-12-16T12:02:39;27.20;;;18.17;;
7001;SDS011;3541;53.230;10.518;2022-12-16T12:05:29;27.77;;;17.83;;
7001;SDS011;3541;53.230;10.518;2022-12-16T12:08:20;31.20;;;18.80;;
7001;SDS011;3541;53.230;10.518;2022-12-16T12:11:12;32.40;;;18.27;;
7001;SDS011;3541;53.230;10.518;2022-12-16T12:14:12;31.33;;;17.20;;
7001;SDS011;3541;53.230;10.518;2022-12-16T12:17:06;28.07;;;18.03;;
7001;SDS011;3541;53.230;10.518;2022-12-16T12:20:02;37.47;;;21.87;;
7001;SDS011;3541;53.230;10.518;2022-12-16T12:23:05;46.10;;;23.13;;
7001;SDS011;3541;53.230;10.518;2022-12-16T12:25:51;30.30;;;19.00;;
7001;SDS011;3541;53.230;10.518;2022-12-16T12:28:50;31.30;;;19.93;;
7001;SDS011;3541;53.230;10.518;2022-12-16T12:31:42;32.47;;;18.87;;
7001;SDS011;3541;53.230;10.518;2022-12-16T12:34:34;31.30;;;18.53;;
7001;SDS011;3541;53.230;10.518;2022-12-16T12:37:25;34.80;;;19.83;;
7001;SDS011;3541;53.230;10.518;2022-12-16T12:40:21;35.20;;;19.90;;
7001;SDS011;3541;53.230;10.518;2022-12-16T12:43:21;35.33;;;19.50;;
7001;SDS011;3541;53.230;10.518;2022-12-16T12:46:19;32.87;;;20.87;;
7001;SDS011;3541;53.230;10.518;2022-12-16T12:49:10;30.07;;;19.77;;
7001;SDS011;3541;53.230;10.518;2022-12-16T12:52:00;37.13;;;21.27;;
7001;SDS011;3541;53.230;10.518;2022-12-16T12:54:50;34.67;;;21.67;;
7001;SDS011;3541;53.230;10.518;2022-12-16T12:57:40;33.50;;;20.17;;
7001;SDS011;3541;53.230;10.518;2022-12-16T13:00:25;41.67;;;24.60;;
7001;SDS011;3541;53.230;10.518;2022-12-16T13:03:18;31.50;;;20.40;;
7001;SDS011;3541;53.230;10.518;2022-12-16T13:06:11;32.57;;;21.57;;
7001;SDS011;3541;53.230;10.518;2022-12-16T13:08:57;35.27;;;19.37;;
7001;SDS011;3541;53.230;10.518;2022-12-16T13:15:04;41.53;;;23.70;;
7001;SDS011;3541;53.230;10.518;2022-12-16T13:21:02;31.63;;;20.37;;
7001;SDS011;3541;53.230;10.518;2022-12-16T13:23:46;37.17;;;22.50;;
7001;SDS011;3541;53.230;10.518;2022-12-16T13:26:31;36.57;;;21.87;;
7001;SDS011;3541;53.230;10.518;2022-12-16T13:29:17;34.70;;;21.93;;
7001;SDS011;3541;53.230;10.518;2022-12-16T13:32:13;39.67;;;22.60;;
7001;SDS011;3541;53.230;10.518;2022-12-16T13:35:00;42.20;;;24.03;;
7001;SDS011;3541;53.230;10.518;2022-12-16T13:37:50;35.00;;;21.77;;
7001;SDS011;3541;53.230;10.518;2022-12-16T13:43:45;39.63;;;23.77;;
7001;SDS011;3541;53.230;10.518;2022-12-16T13:46:41;36.47;;;21.93;;
7001;SDS011;3541;53.230;10.518;2022-12-16T13:49:42;41.57;;;24.60;;
7001;SDS011;3541;53.230;10.518;2022-12-16T13:52:36;38.60;;;23.50;;
7001;SDS011;3541;53.230;10.518;2022-12-16T13:55:27;38.70;;;24.47;;
7001;SDS011;3541;53.230;10.518;2022-12-16T13:58:28;36.83;;;23.83;;
7001;SDS011;3541;53.230;10.518;2022-12-16T14:01:20;35.37;;;24.13;;
7001;SDS011;3541;53.230;10.518;2022-12-16T14:04:11;40.13;;;24.50;;
7001;SDS011;3541;53.230;10.518;2022-12-16T14:07:03;40.27;;;24.63;;
7001;SDS011;3541;53.230;10.518;2022-12-16T14:09:48;38.67;;;22.90;;
7001;SDS011;3541;53.230;10.518;2022-12-16T14:12:40;43.50;;;23.50;;
7001;SDS011;3541;53.230;10.518;2022-12-16T14:15:32;41.23;;;24.30;;
7001;SDS011;3541;53.230;10.518;2022-12-16T14:18:26;40.53;;;24.80;;
7001;SDS011;3541;53.230;10.518;2022-12-16T14:21:41;41.70;;;24.03;;
7001;SDS011;3541;53.230;10.518;2022-12-16T14:24:32;40.63;;;23.73;;
7001;SDS011;3541;53.230;10.518;2022-12-16T14:27:18;36.13;;;22.73;;
7001;SDS011;3541;53.230;10.518;2022-12-16T14:30:13;38.67;;;23.77;;
7001;SDS011;3541;53.230;10.518;2022-12-16T14:33:00;36.70;;;23.10;;
7001;SDS011;3541;53.230;10.518;2022-12-16T14:35:57;41.47;;;24.07;;
7001;SDS011;3541;53.230;10.518;2022-12-16T14:38:45;38.33;;;24.70;;
7001;SDS011;3541;53.230;10.518;2022-12-16T14:41:33;39.73;;;24.40;;
7001;SDS011;3541;53.230;10.518;2022-12-16T14:44:17;38.90;;;23.67;;
7001;SDS011;3541;53.230;10.518;2022-12-16T14:47:03;38.87;;;23.93;;
7001;SDS011;3541;53.230;10.518;2022-12-16T14:49:48;39.50;;;22.47;;
7001;SDS011;3541;53.230;10.518;2022-12-16T14:52:33;37.00;;;23.03;;
7001;SDS011;3541;53.230;10.518;2022-12-16T14:55:18;42.00;;;23.37;;
7001;SDS011;3541;53.230;10.518;2022-12-16T14:58:10;38.53;;;23.07;;
7001;SDS011;3541;53.230;10.518;2022-12-16T15:00:56;37.70;;;22.43;;
7001;SDS011;3541;53.230;10.518;2022-12-16T15:03:43;35.60;;;21.23;;
7001;SDS011;3541;53.230;10.518;2022-12-16T15:06:30;37.70;;;23.50;;
7001;SDS011;3541;53.230;10.518;2022-12-16T15:09:29;37.87;;;22.93;;
7001;SDS011;3541;53.230;10.518;2022-12-16T15:12:17;35.67;;;22.40;;
7001;SDS011;3541;53.230;10.518;2022-12-16T15:15:05;36.23;;;24.07;;
7001;SDS011;3541;53.230;10.518;2022-12-16T15:17:55;41.93;;;24.20;;
7001;SDS011;3541;53.230;10.518;2022-12-16T15:20:42;37.63;;;22.97;;
7001;SDS011;3541;53.230;10.518;2022-12-16T15:23:31;39.40;;;23.63;;
7001;SDS011;3541;53.230;10.518;2022-12-16T15:26:17;36.37;;;22.43;;
7001;SDS011;3541;53.230;10.518;2022-12-16T15:29:03;39.80;;;23.03;;
7001;SDS011;3541;53.230;10.518;2022-12-16T15:31:50;47.10;;;25.20;;
7001;SDS011;3541;53.230;10.518;2022-12-16T15:34:36;37.93;;;24.03;;
7001;SDS011;3541;53.230;10.518;2022-12-16T15:37:29;36.87;;;22.27;;
7001;SDS011;3541;53.230;10.518;2022-12-16T15:40:21;41.77;;;24.93;;
7001;SDS011;3541;53.230;10.518;2022-12-16T15:43:21;35.80;;;22.63;;
7001;SDS011;3541;53.230;10.518;2022-12-16T15:46:15;37.97;;;22.20;;
7001;SDS011;3541;53.230;10.518;2022-12-16T15:49:01;35.50;;;21.60;;
7001;SDS011;3541;53.230;10.518;2022-12-16T15:51:46;34.40;;;20.87;;
7001;SDS011;3541;53.230;10.518;2022-12-16T15:54:31;34.87;;;20.43;;
7001;SDS011;3541;53.230;10.518;2022-12-16T15:57:22;36.03;;;21.30;;
7001;SDS011;3541;53.230;10.518;2022-12-16T16:00:16;41.50;;;24.70;;
7001;SDS011;3541;53.230;10.518;2022-12-16T16:03:02;39.07;;;23.77;;
7001;SDS011;3541;53.230;10.518;2022-12-16T16:05:47;51.30;;;25.43;;
7001;SDS011;3541;53.230;10.518;2022-12-16T16:08:37;34.97;;;21.33;;
7001;SDS011;3541;53.230;10.518;2022-12-16T16:11:21;38.57;;;22.70;;
7001;SDS011;3541;53.230;10.518;2022-12-16T16:14:05;53.87;;;29.70;;
7001;SDS011;3541;53.230;10.518;2022-12-16T16:16:49;49.17;;;27.60;;